Ohshima Kazumaru — JD2908 — position and weather

sailwx.info

Track history (hours):
 
Tides and Currents Weather Stations Pressure Air Temp Water Temp Dewpoint Dewpoint Depression Visibility Wind Speed Wind Dir Waves Ship Positions

Ohshima Kazumaru

Last reported at 2017-Aug-19 16:56 UTC. Time now 2017-Aug-22 14:46 UTC.
Position N 35°13' E 139°46'.

Length 69 m; draft 4 m.

Type: Cargo ship. MMSI: 431000925.

Date/timePositionNaut miles runAvg speedWind from/ knotsBaromVisibWave heightAir tempDewpointWater temp
2017-Aug-19 16:56N 35°13' E 139°46'511.9
2017-Aug-19 16:30N 35°17' E 139°44'611.7
2017-Aug-19 16:01N 35°23' E 139°42'612.7
2017-Aug-19 15:30N 35°28' E 139°47'3 6.8
2017-Aug-19 15:01N 35°32' E 139°47'0 0.0
2017-Aug-19 10:01N 35°32' E 139°47'0 0.0
2017-Aug-19 09:37N 35°32' E 139°47'0 0.0
2017-Aug-19 09:25N 35°32' E 139°47'0 0.0
2017-Aug-19 08:49N 35°32' E 139°47'0 0.0
2017-Aug-19 08:28N 35°32' E 139°47'0 0.0
2017-Aug-19 07:58N 35°32' E 139°47'0 0.0
2017-Aug-19 07:28N 35°32' E 139°47'0 0.0
2017-Aug-19 06:58N 35°32' E 139°47'0 0.0
2017-Aug-19 06:25N 35°32' E 139°47'0 0.0
2017-Aug-19 05:58N 35°32' E 139°47'0 0.0
2017-Aug-19 05:30N 35°32' E 139°47'0 0.0
2017-Aug-19 04:54N 35°32' E 139°47'0 0.0
2017-Aug-19 04:24N 35°32' E 139°47'0 0.0
2017-Aug-19 04:00N 35°32' E 139°47'0 0.0
2017-Aug-19 03:27N 35°32' E 139°47'0 0.0
2017-Aug-19 02:54N 35°32' E 139°47'0 0.0
2017-Aug-19 02:12N 35°32' E 139°47'0 0.0
2017-Aug-19 01:56N 35°32' E 139°47'0 0.0
2017-Aug-18 23:44N 35°32' E 139°47'0 0.0
2017-Aug-18 23:14N 35°32' E 139°47'0 0.0
2017-Aug-18 17:43N 35°32' E 139°47'0 0.0
2017-Aug-18 17:25N 35°32' E 139°47'0 0.0
2017-Aug-18 16:31N 35°32' E 139°47'0 0.0
2017-Aug-18 16:28N 35°32' E 139°47'0 0.0
2017-Aug-18 15:37N 35°32' E 139°47'0 0.0
2017-Aug-18 15:13N 35°32' E 139°47'0 0.0
2017-Aug-18 05:51N 35°32' E 139°47'1 3.0
2017-Aug-18 05:30N 35°31' E 139°48'0 0.3
2017-Aug-18 05:00N 35°31' E 139°48'2 3.3
2017-Aug-18 04:30N 35°29' E 139°48'0 0.0
2017-Aug-18 03:58N 35°29' E 139°48'0 0.0
2017-Aug-18 03:22N 35°29' E 139°48'0 0.0
2017-Aug-18 02:58N 35°29' E 139°48'0 0.0
2017-Aug-18 02:28N 35°29' E 139°48'0 0.0
2017-Aug-18 02:00N 35°29' E 139°48'0 0.0
2017-Aug-18 01:30N 35°29' E 139°48'0 0.0
2017-Aug-18 01:00N 35°29' E 139°48'0 0.0
2017-Aug-18 00:30N 35°29' E 139°48'0 0.1
2017-Aug-17 23:51N 35°29' E 139°48'0 0.0
2017-Aug-17 23:30N 35°29' E 139°48'0 0.0
2017-Aug-17 22:57N 35°29' E 139°48'0 0.0
2017-Aug-17 22:28N 35°29' E 139°48'0 0.0
2017-Aug-17 21:58N 35°29' E 139°48'0 0.0
2017-Aug-17 21:28N 35°29' E 139°48'0 0.0
2017-Aug-17 20:58N 35°29' E 139°48'0 0.0
2017-Aug-17 20:28N 35°29' E 139°48'0 0.0
2017-Aug-17 19:58N 35°29' E 139°48'0 0.0
2017-Aug-17 19:25N 35°29' E 139°48'0 0.0
2017-Aug-17 18:55N 35°29' E 139°48'0 0.0
2017-Aug-17 18:25N 35°29' E 139°48'0 0.0
2017-Aug-17 17:50N 35°29' E 139°48'0 0.0
2017-Aug-17 17:29N 35°29' E 139°48'0 0.1
2017-Aug-17 16:59N 35°29' E 139°48'0 0.0
2017-Aug-17 16:29N 35°29' E 139°48'0 0.0
2017-Aug-17 15:59N 35°29' E 139°48'0 0.0
2017-Aug-17 15:29N 35°29' E 139°48'0 0.0
2017-Aug-17 14:59N 35°29' E 139°48'0 0.0
2017-Aug-17 14:29N 35°29' E 139°48'0 0.0
2017-Aug-17 13:59N 35°29' E 139°48'0 0.0
2017-Aug-17 13:29N 35°29' E 139°48'0 0.0
2017-Aug-17 13:00N 35°29' E 139°48'0 0.0
2017-Aug-17 12:30N 35°29' E 139°48'0 0.0
2017-Aug-17 12:00N 35°29' E 139°48'0 0.1
2017-Aug-17 11:27N 35°29' E 139°48'0 0.0
2017-Aug-17 11:00N 35°29' E 139°48'0 0.0
2017-Aug-17 10:30N 35°29' E 139°48'0 0.0
2017-Aug-17 10:00N 35°29' E 139°48'0 0.0
2017-Aug-17 09:30N 35°29' E 139°48'0 0.0
2017-Aug-17 08:51N 35°29' E 139°48'0 0.0
2017-Aug-17 08:30N 35°29' E 139°48'0 0.0
2017-Aug-17 08:00N 35°29' E 139°48'0 0.0
2017-Aug-17 07:30N 35°29' E 139°48'0 0.0
2017-Aug-17 07:00N 35°29' E 139°48'0 0.0
2017-Aug-17 06:27N 35°29' E 139°48'0 0.0
2017-Aug-17 05:57N 35°29' E 139°48'0 0.0
2017-Aug-17 05:29N 35°29' E 139°48'0 0.0
2017-Aug-17 04:59N 35°29' E 139°48'0 0.0
2017-Aug-17 04:29N 35°29' E 139°48'0 0.1
2017-Aug-17 03:59N 35°29' E 139°48'0 0.0
2017-Aug-17 03:29N 35°29' E 139°48'0 0.0
2017-Aug-17 02:59N 35°29' E 139°48'0 0.0
2017-Aug-17 02:29N 35°29' E 139°48'0 0.0
2017-Aug-17 02:00N 35°29' E 139°48'0 0.0
2017-Aug-17 01:28N 35°29' E 139°48'0 0.0
2017-Aug-17 00:58N 35°29' E 139°48'0 0.0
2017-Aug-17 00:28N 35°29' E 139°48'0 0.0
2017-Aug-16 23:58N 35°29' E 139°48'0 0.0
2017-Aug-16 23:28N 35°29' E 139°48'0 0.1
2017-Aug-16 22:58N 35°29' E 139°48'0 0.0
2017-Aug-16 22:25N 35°29' E 139°48'0 0.0
2017-Aug-16 21:55N 35°29' E 139°48'0 0.0
2017-Aug-16 21:25N 35°29' E 139°48'0 0.0
2017-Aug-16 19:52N 35°29' E 139°48'0 0.0
2017-Aug-16 19:25N 35°29' E 139°48'0 0.0
2017-Aug-16 18:58N 35°29' E 139°48'0 0.0
2017-Aug-16 18:28N 35°29' E 139°48'0 0.0
2017-Aug-16 17:58N 35°29' E 139°48'0 0.0
2017-Aug-16 17:28N 35°29' E 139°48'0 0.0
2017-Aug-16 16:58N 35°29' E 139°48'0 0.0
2017-Aug-16 16:28N 35°29' E 139°48'0 0.0
2017-Aug-16 15:58N 35°29' E 139°48'0 0.0
2017-Aug-16 15:28N 35°29' E 139°48'0 0.0
2017-Aug-16 14:07N 35°29' E 139°48'0 0.0
2017-Aug-16 13:58N 35°29' E 139°48'0 0.1
2017-Aug-16 13:31N 35°29' E 139°48'0 0.1
2017-Aug-16 12:58N 35°29' E 139°48'0 0.0
2017-Aug-16 12:28N 35°29' E 139°48'0 0.0
2017-Aug-16 11:58N 35°29' E 139°48'0 0.0
2017-Aug-16 11:25N 35°29' E 139°48'0 0.0
2017-Aug-16 10:55N 35°29' E 139°48'0 0.0
2017-Aug-16 10:28N 35°29' E 139°48'0 0.0
2017-Aug-16 09:58N 35°29' E 139°48'0 0.0
2017-Aug-16 07:31N 35°29' E 139°48'0 0.0
2017-Aug-16 07:28N 35°29' E 139°48'0 0.0
2017-Aug-16 06:58N 35°29' E 139°48'0 0.0
2017-Aug-16 06:28N 35°29' E 139°48'0 0.2
2017-Aug-16 06:00N 35°29' E 139°48'0 0.1
2017-Aug-16 05:28N 35°29' E 139°48'0 0.0
2017-Aug-16 04:52N 35°29' E 139°48'0 0.0
2017-Aug-16 04:10N 35°29' E 139°48'0 0.0
2017-Aug-16 03:58N 35°29' E 139°48'0 0.0
2017-Aug-16 03:28N 35°29' E 139°48'0 0.0
2017-Aug-16 02:55N 35°29' E 139°48'0 0.0
2017-Aug-16 02:28N 35°29' E 139°48'0 0.0
2017-Aug-16 02:00N 35°29' E 139°48'0 0.0
2017-Aug-16 01:27N 35°29' E 139°48'0 0.0
2017-Aug-16 01:00N 35°29' E 139°48'0 0.0
2017-Aug-16 00:30N 35°29' E 139°48'0 0.0
2017-Aug-16 00:00N 35°29' E 139°48'0 0.0
2017-Aug-15 23:30N 35°29' E 139°48'0 0.0
2017-Aug-15 22:59N 35°29' E 139°48'0 0.0
2017-Aug-15 22:29N 35°29' E 139°48'0 0.0
2017-Aug-15 21:59N 35°29' E 139°48'0 0.0
2017-Aug-15 21:29N 35°29' E 139°48'0 0.0
2017-Aug-15 20:59N 35°29' E 139°48'0 0.0
2017-Aug-15 20:29N 35°29' E 139°48'0 0.0
2017-Aug-15 19:59N 35°29' E 139°48'1 1.8
2017-Aug-15 19:30N 35°28' E 139°48'611.3
2017-Aug-15 19:00N 35°23' E 139°46'510.8
2017-Aug-15 18:30N 35°18' E 139°45'510.8
2017-Aug-15 18:00N 35°12' E 139°47'612.1
2017-Aug-15 17:30N 35°07' E 139°45'611.9
2017-Aug-15 17:00N 35°02' E 139°41'612.2
2017-Aug-15 16:30N 34°58' E 139°35'611.9
2017-Aug-15 16:00N 34°55' E 139°29'  
2017-Aug-10 13:18N 35°02' E 139°29'412.5
2017-Aug-10 13:00N 35°03' E 139°33'612.7
2017-Aug-10 12:30N 35°07' E 139°39'612.1
2017-Aug-10 12:00N 35°11' E 139°45'612.0
2017-Aug-10 11:30N 35°17' E 139°45'612.8
2017-Aug-10 11:00N 35°23' E 139°42'713.1
2017-Aug-10 10:30N 35°28' E 139°46'3 7.0
2017-Aug-10 10:00N 35°32' E 139°47'0 0.0
2017-Aug-10 09:20N 35°32' E 139°47'0 0.0
2017-Aug-10 07:56N 35°32' E 139°47'0 0.0
2017-Aug-10 07:20N 35°32' E 139°47'0 0.0
2017-Aug-10 06:50N 35°32' E 139°47'0 0.0
2017-Aug-10 06:29N 35°32' E 139°47'0 0.0
2017-Aug-10 05:59N 35°32' E 139°47'0 0.0
2017-Aug-10 05:26N 35°32' E 139°47'0 0.0
2017-Aug-10 04:56N 35°32' E 139°47'0 0.0
2017-Aug-10 04:17N 35°32' E 139°47'0 0.0
2017-Aug-10 02:41N 35°32' E 139°47'0 0.0
2017-Aug-10 01:41N 35°32' E 139°47'0 0.0
2017-Aug-10 01:23N 35°32' E 139°47'0 0.0
2017-Aug-10 00:59N 35°32' E 139°47'0 0.0
2017-Aug-10 00:26N 35°32' E 139°47'0 0.0
2017-Aug-09 23:53N 35°32' E 139°47'  
Track history (hours):
 
Tides and Currents Weather Stations Pressure Air Temp Water Temp Dewpoint Dewpoint Depression Visibility Wind Speed Wind Dir Waves Ship Positions

Ohshima Kazumaru

Last reported at 2017-Aug-19 16:56 UTC. Time now 2017-Aug-22 14:46 UTC.
Position N 35°13' E 139°46'.

Length 69 m; draft 4 m.

Type: Cargo ship. MMSI: 431000925.

Date/timePositionNaut miles runAvg speedWind from/ knotsBaromVisibWave heightAir tempDewpointWater temp
2017-Aug-19 16:56N 35°13' E 139°46'511.9
2017-Aug-19 16:30N 35°17' E 139°44'611.7
2017-Aug-19 16:01N 35°23' E 139°42'612.7
2017-Aug-19 15:30N 35°28' E 139°47'3 6.8
2017-Aug-19 15:01N 35°32' E 139°47'0 0.0
2017-Aug-19 10:01N 35°32' E 139°47'0 0.0
2017-Aug-19 09:37N 35°32' E 139°47'0 0.0
2017-Aug-19 09:25N 35°32' E 139°47'0 0.0
2017-Aug-19 08:49N 35°32' E 139°47'0 0.0
2017-Aug-19 08:28N 35°32' E 139°47'0 0.0
2017-Aug-19 07:58N 35°32' E 139°47'0 0.0
2017-Aug-19 07:28N 35°32' E 139°47'0 0.0
2017-Aug-19 06:58N 35°32' E 139°47'0 0.0
2017-Aug-19 06:25N 35°32' E 139°47'0 0.0
2017-Aug-19 05:58N 35°32' E 139°47'0 0.0
2017-Aug-19 05:30N 35°32' E 139°47'0 0.0
2017-Aug-19 04:54N 35°32' E 139°47'0 0.0
2017-Aug-19 04:24N 35°32' E 139°47'0 0.0
2017-Aug-19 04:00N 35°32' E 139°47'0 0.0
2017-Aug-19 03:27N 35°32' E 139°47'0 0.0
2017-Aug-19 02:54N 35°32' E 139°47'0 0.0
2017-Aug-19 02:12N 35°32' E 139°47'0 0.0
2017-Aug-19 01:56N 35°32' E 139°47'0 0.0
2017-Aug-18 23:44N 35°32' E 139°47'0 0.0
2017-Aug-18 23:14N 35°32' E 139°47'0 0.0
2017-Aug-18 17:43N 35°32' E 139°47'0 0.0
2017-Aug-18 17:25N 35°32' E 139°47'0 0.0
2017-Aug-18 16:31N 35°32' E 139°47'0 0.0
2017-Aug-18 16:28N 35°32' E 139°47'0 0.0
2017-Aug-18 15:37N 35°32' E 139°47'0 0.0
2017-Aug-18 15:13N 35°32' E 139°47'0 0.0
2017-Aug-18 05:51N 35°32' E 139°47'1 3.0
2017-Aug-18 05:30N 35°31' E 139°48'0 0.3
2017-Aug-18 05:00N 35°31' E 139°48'2 3.3
2017-Aug-18 04:30N 35°29' E 139°48'0 0.0
2017-Aug-18 03:58N 35°29' E 139°48'0 0.0
2017-Aug-18 03:22N 35°29' E 139°48'0 0.0
2017-Aug-18 02:58N 35°29' E 139°48'0 0.0
2017-Aug-18 02:28N 35°29' E 139°48'0 0.0
2017-Aug-18 02:00N 35°29' E 139°48'0 0.0
2017-Aug-18 01:30N 35°29' E 139°48'0 0.0
2017-Aug-18 01:00N 35°29' E 139°48'0 0.0
2017-Aug-18 00:30N 35°29' E 139°48'0 0.1
2017-Aug-17 23:51N 35°29' E 139°48'0 0.0
2017-Aug-17 23:30N 35°29' E 139°48'0 0.0
2017-Aug-17 22:57N 35°29' E 139°48'0 0.0
2017-Aug-17 22:28N 35°29' E 139°48'0 0.0
2017-Aug-17 21:58N 35°29' E 139°48'0 0.0
2017-Aug-17 21:28N 35°29' E 139°48'0 0.0
2017-Aug-17 20:58N 35°29' E 139°48'0 0.0
2017-Aug-17 20:28N 35°29' E 139°48'0 0.0
2017-Aug-17 19:58N 35°29' E 139°48'0 0.0
2017-Aug-17 19:25N 35°29' E 139°48'0 0.0
2017-Aug-17 18:55N 35°29' E 139°48'0 0.0
2017-Aug-17 18:25N 35°29' E 139°48'0 0.0
2017-Aug-17 17:50N 35°29' E 139°48'0 0.0
2017-Aug-17 17:29N 35°29' E 139°48'0 0.1
2017-Aug-17 16:59N 35°29' E 139°48'0 0.0
2017-Aug-17 16:29N 35°29' E 139°48'0 0.0
2017-Aug-17 15:59N 35°29' E 139°48'0 0.0
2017-Aug-17 15:29N 35°29' E 139°48'0 0.0
2017-Aug-17 14:59N 35°29' E 139°48'0 0.0
2017-Aug-17 14:29N 35°29' E 139°48'0 0.0
2017-Aug-17 13:59N 35°29' E 139°48'0 0.0
2017-Aug-17 13:29N 35°29' E 139°48'0 0.0
2017-Aug-17 13:00N 35°29' E 139°48'0 0.0
2017-Aug-17 12:30N 35°29' E 139°48'0 0.0
2017-Aug-17 12:00N 35°29' E 139°48'0 0.1
2017-Aug-17 11:27N 35°29' E 139°48'0 0.0
2017-Aug-17 11:00N 35°29' E 139°48'0 0.0
2017-Aug-17 10:30N 35°29' E 139°48'0 0.0
2017-Aug-17 10:00N 35°29' E 139°48'0 0.0
2017-Aug-17 09:30N 35°29' E 139°48'0 0.0
2017-Aug-17 08:51N 35°29' E 139°48'0 0.0
2017-Aug-17 08:30N 35°29' E 139°48'0 0.0
2017-Aug-17 08:00N 35°29' E 139°48'0 0.0
2017-Aug-17 07:30N 35°29' E 139°48'0 0.0
2017-Aug-17 07:00N 35°29' E 139°48'0 0.0
2017-Aug-17 06:27N 35°29' E 139°48'0 0.0
2017-Aug-17 05:57N 35°29' E 139°48'0 0.0
2017-Aug-17 05:29N 35°29' E 139°48'0 0.0
2017-Aug-17 04:59N 35°29' E 139°48'0 0.0
2017-Aug-17 04:29N 35°29' E 139°48'0 0.1
2017-Aug-17 03:59N 35°29' E 139°48'0 0.0
2017-Aug-17 03:29N 35°29' E 139°48'0 0.0
2017-Aug-17 02:59N 35°29' E 139°48'0 0.0
2017-Aug-17 02:29N 35°29' E 139°48'0 0.0
2017-Aug-17 02:00N 35°29' E 139°48'0 0.0
2017-Aug-17 01:28N 35°29' E 139°48'0 0.0
2017-Aug-17 00:58N 35°29' E 139°48'0 0.0
2017-Aug-17 00:28N 35°29' E 139°48'0 0.0
2017-Aug-16 23:58N 35°29' E 139°48'0 0.0
2017-Aug-16 23:28N 35°29' E 139°48'0 0.1
2017-Aug-16 22:58N 35°29' E 139°48'0 0.0
2017-Aug-16 22:25N 35°29' E 139°48'0 0.0
2017-Aug-16 21:55N 35°29' E 139°48'0 0.0
2017-Aug-16 21:25N 35°29' E 139°48'0 0.0
2017-Aug-16 19:52N 35°29' E 139°48'0 0.0
2017-Aug-16 19:25N 35°29' E 139°48'0 0.0
2017-Aug-16 18:58N 35°29' E 139°48'0 0.0
2017-Aug-16 18:28N 35°29' E 139°48'0 0.0
2017-Aug-16 17:58N 35°29' E 139°48'0 0.0
2017-Aug-16 17:28N 35°29' E 139°48'0 0.0
2017-Aug-16 16:58N 35°29' E 139°48'0 0.0
2017-Aug-16 16:28N 35°29' E 139°48'0 0.0
2017-Aug-16 15:58N 35°29' E 139°48'0 0.0
2017-Aug-16 15:28N 35°29' E 139°48'0 0.0
2017-Aug-16 14:07N 35°29' E 139°48'0 0.0
2017-Aug-16 13:58N 35°29' E 139°48'0 0.1
2017-Aug-16 13:31N 35°29' E 139°48'0 0.1
2017-Aug-16 12:58N 35°29' E 139°48'0 0.0
2017-Aug-16 12:28N 35°29' E 139°48'0 0.0
2017-Aug-16 11:58N 35°29' E 139°48'0 0.0
2017-Aug-16 11:25N 35°29' E 139°48'0 0.0
2017-Aug-16 10:55N 35°29' E 139°48'0 0.0
2017-Aug-16 10:28N 35°29' E 139°48'0 0.0
2017-Aug-16 09:58N 35°29' E 139°48'0 0.0
2017-Aug-16 07:31N 35°29' E 139°48'0 0.0
2017-Aug-16 07:28N 35°29' E 139°48'0 0.0
2017-Aug-16 06:58N 35°29' E 139°48'0 0.0
2017-Aug-16 06:28N 35°29' E 139°48'0 0.2
2017-Aug-16 06:00N 35°29' E 139°48'0 0.1
2017-Aug-16 05:28N 35°29' E 139°48'0 0.0
2017-Aug-16 04:52N 35°29' E 139°48'0 0.0
2017-Aug-16 04:10N 35°29' E 139°48'0 0.0
2017-Aug-16 03:58N 35°29' E 139°48'0 0.0
2017-Aug-16 03:28N 35°29' E 139°48'0 0.0
2017-Aug-16 02:55N 35°29' E 139°48'0 0.0
2017-Aug-16 02:28N 35°29' E 139°48'0 0.0
2017-Aug-16 02:00N 35°29' E 139°48'0 0.0
2017-Aug-16 01:27N 35°29' E 139°48'0 0.0
2017-Aug-16 01:00N 35°29' E 139°48'0 0.0
2017-Aug-16 00:30N 35°29' E 139°48'0 0.0
2017-Aug-16 00:00N 35°29' E 139°48'0 0.0
2017-Aug-15 23:30N 35°29' E 139°48'0 0.0
2017-Aug-15 22:59N 35°29' E 139°48'0 0.0
2017-Aug-15 22:29N 35°29' E 139°48'0 0.0
2017-Aug-15 21:59N 35°29' E 139°48'0 0.0
2017-Aug-15 21:29N 35°29' E 139°48'0 0.0
2017-Aug-15 20:59N 35°29' E 139°48'0 0.0
2017-Aug-15 20:29N 35°29' E 139°48'0 0.0
2017-Aug-15 19:59N 35°29' E 139°48'1 1.8
2017-Aug-15 19:30N 35°28' E 139°48'611.3
2017-Aug-15 19:00N 35°23' E 139°46'510.8
2017-Aug-15 18:30N 35°18' E 139°45'510.8
2017-Aug-15 18:00N 35°12' E 139°47'612.1
2017-Aug-15 17:30N 35°07' E 139°45'611.9
2017-Aug-15 17:00N 35°02' E 139°41'612.2
2017-Aug-15 16:30N 34°58' E 139°35'611.9
2017-Aug-15 16:00N 34°55' E 139°29'  
2017-Aug-10 13:18N 35°02' E 139°29'412.5
2017-Aug-10 13:00N 35°03' E 139°33'612.7
2017-Aug-10 12:30N 35°07' E 139°39'612.1
2017-Aug-10 12:00N 35°11' E 139°45'612.0
2017-Aug-10 11:30N 35°17' E 139°45'612.8
2017-Aug-10 11:00N 35°23' E 139°42'713.1
2017-Aug-10 10:30N 35°28' E 139°46'3 7.0
2017-Aug-10 10:00N 35°32' E 139°47'0 0.0
2017-Aug-10 09:20N 35°32' E 139°47'0 0.0
2017-Aug-10 07:56N 35°32' E 139°47'0 0.0
2017-Aug-10 07:20N 35°32' E 139°47'0 0.0
2017-Aug-10 06:50N 35°32' E 139°47'0 0.0
2017-Aug-10 06:29N 35°32' E 139°47'0 0.0
2017-Aug-10 05:59N 35°32' E 139°47'0 0.0
2017-Aug-10 05:26N 35°32' E 139°47'0 0.0
2017-Aug-10 04:56N 35°32' E 139°47'0 0.0
2017-Aug-10 04:17N 35°32' E 139°47'0 0.0
2017-Aug-10 02:41N 35°32' E 139°47'0 0.0
2017-Aug-10 01:41N 35°32' E 139°47'0 0.0
2017-Aug-10 01:23N 35°32' E 139°47'0 0.0
2017-Aug-10 00:59N 35°32' E 139°47'0 0.0
2017-Aug-10 00:26N 35°32' E 139°47'0 0.0
2017-Aug-09 23:53N 35°32' E 139°47'  

Dump ship's entire track history